Time;durP1;ratioP1;P1;durP2;ratioP2;P2;SDS_P1;SDS_P2;PMS_P1;PMS_P2;Temp;Humidity;BMP_temperature;BMP_pressure;BME280_temperature;BME280_humidity;BME280_pressure;Samples;Min_cycle;Max_cycle;Signal;HPM_P1;HPM_P2
2023/05/30 00:14:26;;;;;;;;;;;;;;;14.85;46.49;100511.31;30999623;28;96789;-67
2023/05/30 00:29:26;;;;;;;;;;;;;;;14.71;47.12;100509.53;30999405;28;97091;-67
2023/05/30 00:44:26;;;;;;;;;;;;;;;14.52;47.54;100501.03;30997412;28;98121;-66
2023/05/30 00:59:27;;;;;;;;;;;;;;;14.45;47.65;100500.13;30995989;28;96787;-65
2023/05/30 01:14:38;;;;;;;;;;;;;;;14.38;48.05;100513.44;30993870;28;97216;-66
2023/05/30 01:29:41;;;;;;;;;;;;;;;14.34;47.83;100511.34;30993241;28;97395;-66
2023/05/30 01:44:50;;;;;;;;;;;;;;;14.31;47.75;100515.22;30991932;28;97397;-66
2023/05/30 01:59:52;;;;;;;;;;;;;;;14.20;48.12;100515.66;30989747;28;97057;-66
2023/05/30 02:14:54;;;;;;;;;;;;;;;14.03;48.28;100521.22;30987895;28;97349;-66
2023/05/30 02:29:54;;;;;;;;;;;;;;;13.80;48.22;100523.97;30987075;28;96840;-65
2023/05/30 02:44:55;;;;;;;;;;;;;;;13.56;48.64;100532.25;30985894;28;96710;-65
2023/05/30 02:59:56;;;;;;;;;;;;;;;13.49;48.83;100549.06;30984074;28;96797;-66
2023/05/30 03:14:56;;;;;;;;;;;;;;;13.31;49.19;100573.44;30981128;28;96817;-65
2023/05/30 03:29:56;;;;;;;;;;;;;;;13.19;49.75;100578.34;30980320;28;97592;-65
2023/05/30 03:44:56;;;;;;;;;;;;;;;13.12;50.39;100573.88;30980062;28;98200;-64
2023/05/30 03:59:56;;;;;;;;;;;;;;;13.19;50.64;100597.06;30977736;28;97399;-65
2023/05/30 04:14:57;;;;;;;;;;;;;;;13.32;50.68;100611.72;30975720;28;96838;-66
2023/05/30 04:29:57;;;;;;;;;;;;;;;13.50;50.90;100620.28;30972139;28;97482;-65
2023/05/30 04:44:58;;;;;;;;;;;;;;;13.76;50.75;100635.16;30983264;28;96759;-66
2023/05/30 04:59:59;;;;;;;;;;;;;;;14.09;50.73;100640.19;30988794;28;96764;-68
2023/05/30 05:14:59;;;;;;;;;;;;;;;14.58;50.18;100646.91;30986152;28;97045;-62
2023/05/30 05:29:59;;;;;;;;;;;;;;;15.13;49.59;100663.53;30979520;28;97212;-68
2023/05/30 05:45:00;;;;;;;;;;;;;;;15.62;48.65;100669.19;30991672;28;96757;-68
2023/05/30 06:00:01;;;;;;;;;;;;;;;16.31;48.17;100679.31;30994258;28;96999;-66
2023/05/30 06:15:01;;;;;;;;;;;;;;;17.03;46.56;100688.03;30995459;28;96944;-66
2023/05/30 06:30:01;;;;;;;;;;;;;;;17.74;45.24;100691.28;30988934;28;98124;-68
2023/05/30 06:45:02;;;;;;;;;;;;;;;18.60;43.96;100717.47;30981253;28;98599;-65
2023/05/30 07:00:03;;;;;;;;;;;;;;;19.44;42.27;100722.16;30985653;28;97445;-67
2023/05/30 07:15:04;;;;;;;;;;;;;;;20.19;40.26;100734.16;30984055;28;97484;-66
2023/05/30 07:30:04;;;;;;;;;;;;;;;20.98;38.76;100747.16;30980270;28;97293;-66
2023/05/30 07:45:05;;;;;;;;;;;;;;;21.65;37.16;100749.88;30978023;28;97552;-66
2023/05/30 08:00:08;;;;;;;;;;;;;;;22.29;35.14;100758.31;30978340;28;97075;-65
2023/05/30 08:15:09;;;;;;;;;;;;;;;22.89;33.57;100740.13;30979453;28;97584;-64
2023/05/30 08:30:10;;;;;;;;;;;;;;;23.61;32.46;100736.16;30995862;28;96962;-65
2023/05/30 08:55:11;;;;;;;5.43;1.50;;;;;;;24.93;29.88;100735.00;31086153;28;96621;-66
2023/05/30 09:10:11;;;;;;;4.33;1.30;;;;;;;25.35;28.75;100736.31;31077602;28;96788;-70
2023/05/30 09:25:15;;;;;;;4.38;1.42;;;;;;;25.75;27.73;100740.56;31076729;28;97433;-66
2023/05/30 09:40:16;;;;;;;5.47;1.63;;;;;;;26.34;26.17;100736.97;31070132;28;97346;-68
2023/05/30 09:55:16;;;;;;;7.43;1.70;;;;;;;26.12;26.00;100738.97;31050896;28;97323;-66
2023/05/30 10:10:18;;;;;;;5.00;1.75;;;;;;;26.58;24.62;100742.03;30992050;28;96732;-68
2023/05/30 10:25:19;;;;;;;3.30;1.07;;;;;;;26.95;23.09;100751.28;30988218;28;96714;-66
2023/05/30 10:40:36;;;;;;;5.10;1.73;;;;;;;27.26;21.63;100752.22;30986002;28;96801;-66
2023/05/30 10:55:36;;;;;;;5.83;1.50;;;;;;;27.67;21.08;100748.78;30985283;28;97577;-67
2023/05/30 11:10:36;;;;;;;5.47;1.73;;;;;;;28.00;20.86;100739.25;30985197;28;96722;-64
2023/05/30 11:25:37;;;;;;;5.25;1.45;;;;;;;27.28;20.76;100741.00;30983526;28;97421;-65
2023/05/30 11:40:43;;;;;;;3.22;1.27;;;;;;;27.04;21.58;100752.41;30982278;28;97675;-67
2023/05/30 11:55:45;;;;;;;4.50;1.43;;;;;;;27.12;20.66;100756.53;30978084;28;96791;-65
2023/05/30 12:10:49;;;;;;;8.80;1.90;;;;;;;26.85;19.36;100752.06;30978323;28;98608;-64
2023/05/30 12:25:51;;;;;;;3.80;1.30;;;;;;;26.91;19.69;100752.91;30976062;28;97461;-64
2023/05/30 12:40:52;;;;;;;5.57;1.40;;;;;;;26.75;19.39;100746.53;30975894;28;97773;-64
2023/05/30 12:55:52;;;;;;;5.00;1.42;;;;;;;26.35;20.12;100738.63;30974125;28;97618;-67
2023/05/30 13:10:53;;;;;;;4.15;1.60;;;;;;;26.09;20.86;100739.50;30971791;28;97391;-65
2023/05/30 13:25:53;;;;;;;7.95;1.60;;;;;;;25.73;21.56;100731.78;30972216;28;97445;-66
2023/05/30 13:40:53;;;;;;;5.50;1.48;;;;;;;25.61;22.12;100734.69;30992430;28;97232;-66
2023/05/30 13:55:54;;;;;;;3.28;1.50;;;;;;;25.04;22.95;100719.56;30990631;28;97424;-66
2023/05/30 14:10:58;;;;;;;7.00;1.83;;;;;;;24.64;23.06;100715.25;30990620;28;97799;-69
2023/05/30 14:25:58;;;;;;;6.27;1.77;;;;;;;23.97;24.17;100695.97;30987617;28;96810;-64
2023/05/30 14:40:59;;;;;;;11.20;1.55;;;;;;;23.51;24.81;100713.38;30865248;28;109949;-70
2023/05/30 14:56:01;;;;;;;;;;;;;;;23.40;25.22;100696.88;30860605;28;96738;-65
2023/05/30 15:20:13;;;;;;;;;;;;;;;23.02;25.78;100711.88;30959881;28;96555;-68
2023/05/30 15:35:14;;;;;;;4.28;1.63;;;;;;;22.84;26.02;100709.31;30955020;28;96755;-67
2023/05/30 15:50:14;;;;;;;8.13;2.08;;;;;;;22.65;26.19;100698.63;30952445;28;97585;-67
2023/05/30 16:05:15;;;;;;;4.32;1.20;;;;;;;22.46;26.20;100693.31;30951658;28;97815;-67
2023/05/30 16:20:15;;;;;;;4.13;1.92;;;;;;;22.22;26.83;100697.06;30928811;28;96773;-67
2023/05/30 16:35:18;;;;;;;9.77;1.50;;;;;;;21.95;26.80;100711.91;30865228;28;96672;-66
2023/05/30 16:50:18;;;;;;;5.90;1.90;;;;;;;21.60;27.22;100712.63;30861762;28;97519;-67
2023/05/30 17:05:18;;;;;;;3.87;1.20;;;;;;;21.33;27.11;100722.16;30860262;28;103717;-67
2023/05/30 17:20:18;;;;;;;6.00;1.30;;;;;;;21.00;27.59;100747.78;30860691;28;96722;-67
2023/05/30 17:35:19;;;;;;;5.93;1.50;;;;;;;20.59;28.00;100755.47;30858128;28;106890;-66
2023/05/30 17:50:19;;;;;;;6.83;1.50;;;;;;;20.20;28.64;100763.72;30850926;28;97220;-66
2023/05/30 18:05:22;;;;;;;6.22;1.75;;;;;;;19.61;29.05;100769.25;30845589;28;96709;-67
2023/05/30 18:20:22;;;;;;;7.67;5.27;;;;;;;19.03;29.37;100772.81;30780438;28;97957;-67
2023/05/30 18:35:22;;;;;;;6.93;1.75;;;;;;;18.42;30.12;100784.69;30814338;28;112492;-66
2023/05/30 18:50:23;;;;;;;8.07;1.60;;;;;;;17.79;31.04;100791.22;30734086;28;97285;-65
2023/05/30 19:05:24;;;;;;;8.30;2.22;;;;;;;17.27;31.94;100798.09;30752152;28;97274;-65
2023/05/30 19:20:25;;;;;;;4.60;1.67;;;;;;;16.79;33.08;100805.00;30818236;28;96785;-65
2023/05/30 19:35:26;;;;;;;4.00;1.97;;;;;;;16.42;33.85;100825.81;30851349;28;97063;-67
2023/05/30 19:50:26;;;;;;;8.23;2.30;;;;;;;16.11;35.12;100826.16;30793628;28;97909;-66
2023/05/30 20:05:27;;;;;;;6.30;1.80;;;;;;;15.75;36.08;100833.16;30753389;28;97025;-66
2023/05/30 20:20:27;;;;;;;6.97;2.38;;;;;;;15.46;37.28;100829.50;30748011;28;97202;-67
2023/05/30 20:35:28;;;;;;;11.77;3.58;;;;;;;15.22;38.40;100831.44;30746806;28;96919;-68
2023/05/30 20:50:28;;;;;;;8.30;2.63;;;;;;;14.98;39.40;100842.44;30745097;28;96609;-68
2023/05/30 21:05:28;;;;;;;9.18;3.60;;;;;;;14.72;40.18;100860.63;30837316;28;97969;-68
2023/05/30 21:20:29;;;;;;;9.98;3.00;;;;;;;14.54;40.78;100865.44;30855294;28;103501;-65
2023/05/30 21:35:30;;;;;;;6.07;2.47;;;;;;;14.38;41.18;100874.47;30861248;28;97689;-66
2023/05/30 21:50:30;;;;;;;20.98;3.95;;;;;;;14.11;42.56;100887.34;30860640;28;97027;-67
2023/05/30 22:05:31;;;;;;;13.57;3.13;;;;;;;13.86;44.03;100897.38;30859003;28;96709;-67
2023/05/30 22:20:31;;;;;;;11.57;2.55;;;;;;;13.58;44.90;100884.41;30857319;28;106992;-67
2023/05/30 22:35:32;;;;;;;11.25;2.67;;;;;;;13.31;45.76;100888.31;30857350;28;96994;-67
2023/05/30 22:50:33;;;;;;;9.70;2.50;;;;;;;13.00;46.78;100892.56;30855832;28;98630;-66
2023/05/30 23:05:33;;;;;;;7.90;2.50;;;;;;;12.79;47.82;100884.19;30854728;28;96926;-64
2023/05/30 23:20:37;;;;;;;9.68;3.60;;;;;;;12.58;48.66;100887.41;30853327;28;107132;-67
2023/05/30 23:35:37;;;;;;;7.80;2.53;;;;;;;12.41;49.63;100886.53;30864403;28;96696;-67
2023/05/30 23:50:37;;;;;;;7.05;3.47;;;;;;;12.24;50.38;100899.03;30872781;28;108778;-67
